Time;durP1;ratioP1;P1;durP2;ratioP2;P2;SDS_P1;SDS_P2;PMS_P1;PMS_P2;Temp;Humidity;BMP_temperature;BMP_pressure;BME280_temperature;BME280_humidity;BME280_pressure;Samples;Min_cycle;Max_cycle;Signal;HPM_P1;HPM_P2
2022/06/14 00:01:01;;;;;;;8.15;2.53;;;13.50;99.90;;;;;;5075998;28;20038;-72
2022/06/14 00:03:34;;;;;;;12.30;2.88;;;13.50;99.90;;;;;;5057998;28;20502;-72
2022/06/14 00:06:05;;;;;;;10.00;2.70;;;13.40;99.90;;;;;;5075598;28;20024;-72
2022/06/14 00:08:31;;;;;;;10.75;2.63;;;13.40;99.90;;;;;;5076040;28;20403;-73
2022/06/14 00:10:59;;;;;;;8.07;2.80;;;13.40;99.90;;;;;;5075601;28;20024;-72
2022/06/14 00:13:26;;;;;;;15.27;3.22;;;13.40;99.90;;;;;;5057790;28;20032;-73
2022/06/14 00:15:51;;;;;;;10.30;2.65;;;13.40;99.90;;;;;;5075899;28;20608;-71
2022/06/14 00:18:18;;;;;;;6.88;2.63;;;13.40;99.90;;;;;;5075863;28;20095;-72
2022/06/14 00:20:46;;;;;;;9.20;2.47;;;13.40;99.90;;;;;;5075382;28;20020;-72
2022/06/14 00:23:12;;;;;;;10.68;2.70;;;13.40;99.90;;;;;;5075542;28;20044;-72
2022/06/14 00:25:41;;;;;;;9.85;2.47;;;13.40;99.90;;;;;;5075653;28;20107;-71
2022/06/14 00:28:13;;;;;;;8.82;2.70;;;13.40;99.90;;;;;;5057517;28;20024;-72
2022/06/14 00:30:40;;;;;;;9.40;2.88;;;13.30;99.90;;;;;;5075996;28;20026;-71
2022/06/14 00:33:06;;;;;;;8.32;2.60;;;13.30;99.90;;;;;;5076455;28;20020;-71
2022/06/14 00:35:32;;;;;;;6.65;2.40;;;13.30;99.90;;;;;;5076180;28;20031;-72
2022/06/14 00:38:00;;;;;;;8.00;2.47;;;13.30;99.90;;;;;;5076082;28;20078;-72
2022/06/14 00:40:30;;;;;;;10.05;2.63;;;13.30;99.90;;;;;;5075676;28;20040;-72
2022/06/14 00:42:57;;;;;;;10.85;2.50;;;13.30;99.90;;;;;;5054976;28;20028;-72
2022/06/14 00:45:22;;;;;;;8.52;2.15;;;13.20;99.90;;;;;;5072299;28;20024;-72
2022/06/14 00:48:07;;;;;;;9.52;2.45;;;13.20;99.90;;;;;;5072134;28;20024;-72
2022/06/14 00:50:40;;;;;;;8.55;2.40;;;13.20;99.90;;;;;;5072215;28;20028;-72
2022/06/14 00:53:14;;;;;;;8.82;2.63;;;13.10;99.90;;;;;;5072392;28;20639;-72
2022/06/14 00:55:48;;;;;;;6.15;2.55;;;13.10;99.90;;;;;;5072288;28;20035;-72
2022/06/14 00:58:21;;;;;;;11.88;2.70;;;13.10;99.90;;;;;;5072575;28;20048;-72
2022/06/14 01:00:54;;;;;;;10.68;2.75;;;13.10;99.90;;;;;;5072282;28;20485;-73
2022/06/14 01:03:23;;;;;;;11.23;2.67;;;13.10;99.90;;;;;;5072263;28;20027;-73
2022/06/14 01:06:07;;;;;;;7.70;2.75;;;13.10;99.90;;;;;;5072230;28;20028;-73
2022/06/14 01:08:58;;;;;;;14.60;3.10;;;13.00;99.90;;;;;;5072412;28;20083;-73
2022/06/14 01:11:40;;;;;;;11.05;3.00;;;13.00;99.90;;;;;;5058879;28;20087;-73
2022/06/14 01:14:09;;;;;;;12.05;2.50;;;13.00;99.90;;;;;;5072024;28;20436;-73
2022/06/14 01:16:36;;;;;;;13.05;2.95;;;13.00;99.90;;;;;;5072019;28;20232;-73
2022/06/14 01:19:05;;;;;;;11.60;2.85;;;12.90;99.90;;;;;;5071921;28;20024;-73
2022/06/14 01:21:31;;;;;;;8.90;2.58;;;12.90;99.90;;;;;;5057906;28;20044;-73
2022/06/14 01:23:57;;;;;;;8.30;2.63;;;12.90;99.90;;;;;;5071975;28;20556;-73
2022/06/14 01:26:25;;;;;;;15.35;2.92;;;12.90;99.90;;;;;;5071540;28;20019;-74
2022/06/14 01:29:01;;;;;;;8.15;2.67;;;12.90;99.90;;;;;;5071814;28;20483;-73
2022/06/14 01:31:29;;;;;;;11.68;3.08;;;12.80;99.90;;;;;;5071932;28;20123;-73
2022/06/14 01:34:01;;;;;;;11.75;2.90;;;12.80;99.90;;;;;;5053684;28;20033;-74
2022/06/14 01:36:31;;;;;;;7.88;2.70;;;12.80;99.90;;;;;;5071499;28;20608;-74
2022/06/14 01:39:01;;;;;;;10.63;3.13;;;12.80;99.90;;;;;;5071655;28;20116;-73
2022/06/14 01:41:35;;;;;;;8.70;2.92;;;12.80;99.90;;;;;;5071233;28;20538;-73
2022/06/14 01:44:11;;;;;;;9.52;2.58;;;12.80;99.90;;;;;;5071429;28;20043;-73
2022/06/14 01:47:02;;;;;;;9.25;2.63;;;12.80;99.90;;;;;;5071509;28;20492;-74
2022/06/14 01:52:49;;;;;;;8.80;2.58;;;12.70;99.90;;;;;;5057852;28;20051;-74
2022/06/14 01:55:17;;;;;;;9.40;2.80;;;12.70;99.90;;;;;;5071094;28;20398;-73
2022/06/14 01:58:09;;;;;;;7.10;2.60;;;12.70;99.90;;;;;;5071146;28;20270;-73
2022/06/14 02:00:50;;;;;;;7.75;2.60;;;12.70;99.90;;;;;;5052581;28;20078;-73
2022/06/14 02:06:21;;;;;;;8.90;3.05;;;12.70;99.90;;;;;;5071191;28;20039;-74
2022/06/14 02:09:07;;;;;;;7.10;2.90;;;12.70;99.90;;;;;;5071272;28;20035;-74
2022/06/14 02:11:35;;;;;;;8.50;3.00;;;12.60;99.90;;;;;;5070890;28;20024;-73
2022/06/14 02:14:08;;;;;;;9.70;3.05;;;12.60;99.90;;;;;;5070667;28;20710;-73
2022/06/14 02:16:41;;;;;;;10.48;3.00;;;12.70;99.90;;;;;;5052782;28;20559;-73
2022/06/14 02:19:09;;;;;;;9.65;3.08;;;12.60;99.90;;;;;;5071448;28;20117;-73
2022/06/14 02:21:46;;;;;;;7.25;2.85;;;12.60;99.90;;;;;;5070897;28;20037;-73
2022/06/14 02:24:18;;;;;;;10.85;3.30;;;12.60;99.90;;;;;;5070699;28;20035;-73
2022/06/14 02:26:50;;;;;;;10.30;2.78;;;12.60;99.90;;;;;;5070665;28;20026;-73
2022/06/14 02:29:28;;;;;;;8.95;2.70;;;12.60;99.90;;;;;;5071202;28;20316;-73
2022/06/14 02:32:12;;;;;;;6.82;2.83;;;12.60;99.90;;;;;;5070489;28;20412;-73
2022/06/14 02:34:45;;;;;;;8.25;3.17;;;12.50;99.90;;;;;;5070585;28;20064;-73
2022/06/14 02:37:23;;;;;;;7.90;2.80;;;12.50;99.90;;;;;;5070235;28;20031;-73
2022/06/14 02:39:54;;;;;;;9.48;2.97;;;12.50;99.90;;;;;;5070474;28;20504;-73
2022/06/14 02:42:32;;;;;;;7.90;2.70;;;12.40;99.90;;;;;;5070538;28;20016;-73
2022/06/14 02:45:03;;;;;;;7.53;2.78;;;12.50;99.90;;;;;;5070993;28;20016;-72
2022/06/14 02:47:53;;;;;;;6.15;2.92;;;12.40;99.90;;;;;;5052053;28;20035;-73
2022/06/14 02:50:33;;;;;;;9.32;2.97;;;12.40;99.90;;;;;;5070578;28;20050;-74
2022/06/14 02:53:09;;;;;;;8.45;2.65;;;12.40;99.90;;;;;;5052197;28;20067;-73
2022/06/14 02:55:43;;;;;;;7.22;2.55;;;12.40;99.90;;;;;;5070518;28;20082;-73
2022/06/14 02:58:13;;;;;;;7.30;2.63;;;12.40;99.90;;;;;;5070151;28;20024;-73
2022/06/14 03:00:45;;;;;;;8.38;2.90;;;12.30;99.90;;;;;;5070386;28;20116;-74
2022/06/14 03:03:31;;;;;;;8.05;2.72;;;12.30;99.90;;;;;;5070142;28;20043;-73
2022/06/14 03:06:06;;;;;;;5.30;2.58;;;12.30;99.90;;;;;;5070001;28;20126;-73
2022/06/14 03:09:01;;;;;;;11.85;4.47;;;12.30;99.90;;;;;;5070104;28;20031;-73
2022/06/14 03:11:35;;;;;;;10.52;4.30;;;12.30;99.90;;;;;;5070081;28;20091;-73
2022/06/14 03:14:25;;;;;;;9.55;3.90;;;12.20;99.90;;;;;;5070080;28;20029;-73
2022/06/14 03:17:21;;;;;;;10.20;3.83;;;12.20;99.90;;;;;;5070320;28;20054;-73
2022/06/14 03:19:59;;;;;;;9.80;3.50;;;12.20;99.90;;;;;;5051969;28;20048;-73
2022/06/14 03:22:44;;;;;;;11.40;3.63;;;12.20;99.90;;;;;;5069917;28;20187;-73
2022/06/14 03:25:17;;;;;;;9.07;3.72;;;12.20;99.90;;;;;;5070116;28;20104;-73
2022/06/14 03:27:53;;;;;;;10.85;3.47;;;12.20;99.90;;;;;;5069962;28;20040;-74
2022/06/14 03:30:29;;;;;;;7.82;3.10;;;12.20;99.90;;;;;;5070105;28;20082;-73
2022/06/14 03:33:04;;;;;;;8.02;3.50;;;12.20;99.90;;;;;;5069945;28;20043;-73
2022/06/14 03:35:35;;;;;;;10.02;3.13;;;12.10;99.90;;;;;;5069759;28;20102;-73
2022/06/14 03:38:16;;;;;;;10.10;3.05;;;12.10;99.90;;;;;;5070076;28;20391;-73
2022/06/14 03:40:44;;;;;;;7.93;2.90;;;12.10;99.90;;;;;;5069938;28;20020;-73
2022/06/14 03:43:10;;;;;;;9.00;3.05;;;12.10;99.90;;;;;;5051547;28;20029;-73
2022/06/14 03:46:05;;;;;;;10.95;3.33;;;12.10;99.90;;;;;;5069811;28;20032;-74
2022/06/14 03:48:35;;;;;;;5.75;2.78;;;12.10;99.90;;;;;;5069789;28;20048;-73
2022/06/14 03:51:31;;;;;;;8.80;2.83;;;12.10;99.90;;;;;;5069812;28;20016;-74
2022/06/14 03:54:05;;;;;;;;;;;12.10;99.90;;;;;;5069913;28;20029;-74
2022/06/14 03:56:43;;;;;;;10.27;3.00;;;12.00;99.90;;;;;;5069764;28;19905;-74
2022/06/14 03:59:30;;;;;;;8.00;3.15;;;12.00;99.90;;;;;;5052483;28;20028;-73
2022/06/14 04:02:05;;;;;;;8.07;3.30;;;12.00;99.90;;;;;;5069628;28;20024;-74
2022/06/14 04:04:52;;;;;;;8.32;3.10;;;12.00;99.90;;;;;;5069444;28;20539;-73
2022/06/14 04:07:26;;;;;;;10.88;3.63;;;12.10;99.90;;;;;;5069814;28;20035;-74
2022/06/14 04:10:09;;;;;;;10.17;3.60;;;12.00;99.90;;;;;;5051339;28;20431;-73
2022/06/14 04:12:53;;;;;;;10.88;3.65;;;12.10;99.90;;;;;;5069907;28;20274;-73
2022/06/14 04:15:19;;;;;;;11.82;3.60;;;12.10;99.90;;;;;;5051477;28;20020;-73
2022/06/14 04:18:35;;;;;;;10.23;3.80;;;12.10;99.90;;;;;;5069374;28;20031;-73
2022/06/14 04:21:26;;;;;;;9.73;3.97;;;12.10;99.90;;;;;;5066207;28;20087;-73
2022/06/14 04:24:22;;;;;;;11.52;4.40;;;12.10;99.90;;;;;;5064000;28;20082;-73
2022/06/14 04:27:03;;;;;;;11.25;3.75;;;12.10;99.90;;;;;;5072970;28;20522;-73
2022/06/14 04:29:58;;;;;;;8.98;3.90;;;12.10;99.90;;;;;;5072633;28;20051;-75
2022/06/14 04:32:51;;;;;;;8.95;4.47;;;12.20;99.90;;;;;;5072967;28;20377;-74
2022/06/14 04:35:38;;;;;;;11.15;3.90;;;12.20;99.90;;;;;;5072895;28;20017;-74
2022/06/14 04:38:09;;;;;;;11.32;4.00;;;12.20;99.90;;;;;;5051107;28;20068;-72
2022/06/14 04:40:57;;;;;;;11.75;4.63;;;12.20;99.90;;;;;;5069984;28;20109;-74
2022/06/14 04:43:43;;;;;;;13.77;5.00;;;12.20;99.90;;;;;;5067897;28;20032;-74
2022/06/14 04:46:17;;;;;;;13.80;4.85;;;12.30;99.90;;;;;;5071679;28;20075;-74
2022/06/14 04:48:51;;;;;;;11.68;4.38;;;12.30;99.90;;;;;;5072458;28;20052;-73
2022/06/14 04:51:31;;;;;;;10.25;4.97;;;12.30;99.90;;;;;;5061349;28;20062;-73
2022/06/14 04:54:09;;;;;;;12.20;4.88;;;12.30;99.90;;;;;;5071419;28;20079;-73
2022/06/14 04:56:45;;;;;;;7.93;4.40;;;12.40;99.90;;;;;;5062981;28;20029;-77
2022/06/14 04:59:14;;;;;;;;;;;12.40;99.90;;;;;;5066008;28;20087;-77
2022/06/14 05:01:51;;;;;;;11.35;4.35;;;12.40;99.90;;;;;;5063620;28;19904;-77
2022/06/14 05:04:32;;;;;;;11.00;4.53;;;12.40;99.90;;;;;;5047042;28;20028;-77
2022/06/14 05:07:06;;;;;;;12.85;4.70;;;12.50;99.90;;;;;;5069647;28;20023;-77
2022/06/14 05:09:40;;;;;;;10.05;4.22;;;12.50;99.90;;;;;;5062243;28;20020;-75
2022/06/14 05:12:45;;;;;;;14.85;5.05;;;12.60;99.90;;;;;;5062182;28;20353;-76
2022/06/14 05:15:19;;;;;;;12.57;4.30;;;12.70;99.90;;;;;;5052395;28;20078;-76
2022/06/14 05:17:53;;;;;;;12.32;4.35;;;12.70;99.90;;;;;;5063633;28;20388;-76
2022/06/14 05:20:50;;;;;;;11.18;3.55;;;12.80;99.90;;;;;;5062464;28;20032;-77
2022/06/14 05:23:57;;;;;;;13.15;4.03;;;12.80;99.90;;;;;;5055983;28;20053;-75
2022/06/14 05:26:29;;;;;;;11.40;3.60;;;12.90;99.90;;;;;;5028834;28;20029;-75
2022/06/14 05:29:15;;;;;;;10.68;3.30;;;12.90;99.90;;;;;;5027963;28;20053;-77
2022/06/14 05:31:57;;;;;;;10.93;3.30;;;13.00;99.90;;;;;;5025589;28;20103;-76
2022/06/14 05:34:41;;;;;;;10.18;2.92;;;13.00;99.90;;;;;;5027279;28;20410;-76
2022/06/14 05:37:31;;;;;;;9.18;2.83;;;13.10;99.90;;;;;;5028575;28;20227;-74
2022/06/14 05:40:08;;;;;;;10.30;2.92;;;13.20;99.90;;;;;;5029245;28;20029;-76
2022/06/14 05:42:41;;;;;;;11.32;2.40;;;13.20;99.90;;;;;;5024269;28;20040;-75
2022/06/14 05:45:12;;;;;;;8.07;2.58;;;13.30;99.90;;;;;;5027185;28;20504;-77
2022/06/14 05:47:53;;;;;;;11.05;2.35;;;13.30;99.90;;;;;;5024014;28;20111;-73
2022/06/14 05:50:26;;;;;;;10.93;2.50;;;13.40;99.90;;;;;;5023949;28;20027;-73
2022/06/14 05:53:36;;;;;;;10.07;2.72;;;13.40;99.90;;;;;;5025947;28;20127;-73
2022/06/14 05:56:31;;;;;;;8.80;2.30;;;13.50;99.90;;;;;;5020900;28;20034;-74
2022/06/14 05:59:08;;;;;;;7.43;2.05;;;13.60;99.90;;;;;;5025378;28;20045;-73
2022/06/14 06:01:39;;;;;;;5.90;1.80;;;13.60;99.90;;;;;;5062244;28;20049;-73
2022/06/14 06:04:13;;;;;;;5.40;2.22;;;13.70;99.90;;;;;;5052601;28;20029;-73
2022/06/14 06:06:48;;;;;;;6.07;2.20;;;13.80;99.90;;;;;;5047479;28;20086;-73
2022/06/14 06:09:22;;;;;;;8.85;2.50;;;13.90;99.90;;;;;;5069328;28;20107;-73
2022/06/14 06:11:57;;;;;;;6.90;2.42;;;14.00;99.90;;;;;;5059289;28;20249;-73
2022/06/14 06:14:40;;;;;;;9.82;2.42;;;14.10;99.90;;;;;;5070688;28;20392;-73
2022/06/14 06:17:13;;;;;;;6.70;1.80;;;14.20;99.90;;;;;;5070084;28;20037;-73
2022/06/14 06:19:54;;;;;;;7.70;2.08;;;14.20;99.90;;;;;;5052446;28;20033;-73
2022/06/14 06:22:23;;;;;;;6.60;1.80;;;14.30;99.90;;;;;;5070325;28;20087;-73
2022/06/14 06:24:59;;;;;;;7.85;2.00;;;14.40;99.90;;;;;;5070609;28;20054;-73
2022/06/14 06:27:35;;;;;;;5.40;1.70;;;14.50;99.90;;;;;;5070113;28;20099;-73
2022/06/14 06:30:04;;;;;;;9.77;2.03;;;14.70;99.90;;;;;;5070556;28;20104;-74
2022/06/14 06:32:33;;;;;;;11.82;2.10;;;14.80;99.90;;;;;;5069630;28;20116;-74
2022/06/14 06:35:01;;;;;;;7.85;1.60;;;14.90;99.90;;;;;;5070913;28;20424;-77
2022/06/14 06:37:45;;;;;;;11.55;1.98;;;15.10;99.90;;;;;;5070789;28;20099;-78
2022/06/14 06:40:11;;;;;;;10.50;1.92;;;15.30;99.90;;;;;;5071184;28;20503;-77
2022/06/14 06:42:46;;;;;;;11.50;1.80;;;15.40;99.90;;;;;;5052827;28;20032;-78
2022/06/14 06:45:22;;;;;;;7.32;1.80;;;15.60;99.90;;;;;;5070550;28;20024;-77
2022/06/14 06:48:06;;;;;;;;;;;15.70;99.90;;;;;;5070877;28;20035;-76
2022/06/14 06:50:51;;;;;;;6.53;1.90;;;15.90;99.90;;;;;;5070115;28;19908;-74
2022/06/14 06:53:18;;;;;;;;;;;16.00;99.90;;;;;;5070102;28;20082;-75
2022/06/14 06:55:56;;;;;;;6.00;1.88;;;16.20;99.90;;;;;;5070208;28;20003;-74
2022/06/14 06:58:30;;;;;;;7.47;2.00;;;16.40;99.90;;;;;;5070384;28;20430;-74
2022/06/14 07:01:11;;;;;;;6.32;1.88;;;16.40;99.90;;;;;;5063008;28;20032;-74
2022/06/14 07:03:48;;;;;;;9.48;2.08;;;16.50;99.90;;;;;;5069518;28;20040;-74
2022/06/14 07:06:35;;;;;;;6.63;1.90;;;16.70;99.90;;;;;;5065796;28;20036;-74
2022/06/14 07:09:10;;;;;;;7.30;1.90;;;16.80;99.90;;;;;;5068992;28;20024;-74
2022/06/14 07:12:02;;;;;;;6.95;1.92;;;16.80;99.90;;;;;;5056377;28;20027;-73
2022/06/14 07:14:32;;;;;;;9.20;2.17;;;16.90;99.90;;;;;;5068613;28;20040;-74
2022/06/14 07:17:12;;;;;;;5.75;2.10;;;17.00;99.90;;;;;;5069856;28;20466;-74
2022/06/14 07:19:40;;;;;;;7.57;2.40;;;17.10;99.90;;;;;;5069725;28;20174;-75
2022/06/14 07:22:23;;;;;;;7.35;2.20;;;17.20;99.90;;;;;;5067722;28;20448;-74
2022/06/14 07:25:03;;;;;;;5.45;1.95;;;17.30;99.90;;;;;;5067219;28;20060;-74
2022/06/14 07:27:36;;;;;;;4.07;1.92;;;17.40;99.90;;;;;;5067940;28;20025;-74
2022/06/14 07:30:12;;;;;;;7.38;2.20;;;17.50;99.90;;;;;;5069802;28;20027;-74
2022/06/14 07:32:46;;;;;;;9.45;2.42;;;17.60;99.90;;;;;;5069603;28;20469;-74
2022/06/14 07:35:14;;;;;;;3.92;1.70;;;17.70;99.90;;;;;;5051400;28;20035;-74
2022/06/14 07:37:56;;;;;;;6.15;2.10;;;17.80;99.90;;;;;;5068982;28;20035;-74
2022/06/14 07:40:43;;;;;;;5.53;1.85;;;18.00;99.90;;;;;;5069221;28;20077;-74
2022/06/14 07:43:23;;;;;;;8.63;2.22;;;18.10;99.90;;;;;;5069191;28;20024;-75
2022/06/14 07:45:50;;;;;;;6.65;2.40;;;18.20;99.90;;;;;;5070065;28;20074;-73
2022/06/14 07:48:40;;;;;;;3.88;1.70;;;18.30;99.90;;;;;;5068356;28;20028;-74
2022/06/14 07:51:28;;;;;;;3.58;1.80;;;18.40;99.40;;;;;;5068715;28;20103;-74
2022/06/14 07:53:58;;;;;;;4.35;2.00;;;18.50;99.00;;;;;;5050233;28;20305;-74
2022/06/14 07:56:31;;;;;;;6.90;2.05;;;18.60;98.80;;;;;;5051586;28;20024;-73
2022/06/14 07:59:15;;;;;;;7.05;2.30;;;18.80;98.20;;;;;;5072369;28;20022;-73
2022/06/14 08:02:20;;;;;;;7.82;2.13;;;19.00;97.10;;;;;;5068495;28;20025;-73
2022/06/14 08:05:04;;;;;;;5.45;2.20;;;19.20;96.10;;;;;;5049747;28;20079;-74
2022/06/14 08:07:31;;;;;;;4.78;1.88;;;19.40;95.00;;;;;;5071544;28;20112;-74
2022/06/14 08:09:57;;;;;;;5.55;2.20;;;19.70;94.30;;;;;;5073160;28;20025;-73
2022/06/14 08:13:00;;;;;;;6.57;2.50;;;20.00;93.20;;;;;;5072945;28;20028;-73
2022/06/14 08:15:34;;;;;;;4.82;2.15;;;20.00;91.60;;;;;;5073340;28;20027;-74
2022/06/14 08:18:06;;;;;;;8.05;2.05;;;20.00;91.50;;;;;;5072077;28;20040;-74
2022/06/14 08:20:47;;;;;;;7.32;2.38;;;20.00;90.80;;;;;;5073402;28;20021;-74
2022/06/14 08:23:37;;;;;;;5.05;2.30;;;20.10;90.20;;;;;;5072937;28;20048;-73
2022/06/14 08:26:15;;;;;;;8.13;2.42;;;20.10;90.40;;;;;;5073275;28;20079;-73
2022/06/14 08:28:51;;;;;;;7.90;2.30;;;20.00;89.70;;;;;;5072020;28;20016;-73
2022/06/14 08:31:33;;;;;;;8.57;2.90;;;20.00;88.90;;;;;;5054856;28;20032;-73
2022/06/14 08:34:21;;;;;;;4.93;2.35;;;20.00;88.30;;;;;;5073366;28;20044;-74
2022/06/14 08:37:02;;;;;;;5.30;2.40;;;19.90;88.50;;;;;;5072679;28;20021;-74
2022/06/14 08:39:37;;;;;;;9.15;2.63;;;19.90;88.10;;;;;;5072703;28;20028;-74
2022/06/14 08:42:32;;;;;;;5.93;2.07;;;20.10;87.90;;;;;;5072259;28;20048;-74
2022/06/14 08:45:12;;;;;;;7.78;2.50;;;20.30;87.20;;;;;;5067517;28;20028;-74
2022/06/14 08:48:06;;;;;;;6.03;2.20;;;20.60;85.90;;;;;;5072477;28;20074;-74
2022/06/14 08:51:10;;;;;;;9.18;2.25;;;20.80;85.00;;;;;;5055638;28;20063;-74
2022/06/14 08:54:01;;;;;;;7.90;2.42;;;21.10;83.80;;;;;;5068232;28;20055;-74
2022/06/14 08:56:58;;;;;;;4.80;2.03;;;21.40;81.60;;;;;;5072265;28;20021;-74
2022/06/14 08:59:36;;;;;;;7.53;2.25;;;21.60;80.10;;;;;;5066024;28;20029;-74
2022/06/14 09:02:32;;;;;;;8.73;2.60;;;21.80;78.70;;;;;;5065831;28;20032;-73
2022/06/14 09:05:15;;;;;;;6.55;2.75;;;21.90;77.40;;;;;;5072183;28;20028;-73
2022/06/14 09:08:05;;;;;;;8.90;3.30;;;21.90;75.40;;;;;;5064156;28;20024;-74
2022/06/14 09:10:52;;;;;;;6.65;2.53;;;22.00;74.50;;;;;;5070212;28;20025;-73
2022/06/14 09:13:44;;;;;;;7.75;2.50;;;22.10;74.30;;;;;;5072142;28;20464;-71
2022/06/14 09:16:51;;;;;;;4.78;2.00;;;22.30;73.60;;;;;;5068131;28;20024;-72
2022/06/14 09:19:34;;;;;;;6.00;2.28;;;22.60;71.30;;;;;;5071146;28;20044;-72
2022/06/14 09:22:32;;;;;;;6.93;2.35;;;22.90;70.60;;;;;;5059758;28;20076;-72
2022/06/14 09:25:31;;;;;;;5.85;2.47;;;23.10;68.90;;;;;;5072036;28;20090;-75
2022/06/14 09:28:38;;;;;;;5.55;2.50;;;23.40;68.00;;;;;;5052404;28;20020;-76
2022/06/14 09:31:06;;;;;;;6.65;2.88;;;23.60;62.50;;;;;;5072497;28;20476;-76
2022/06/14 09:34:10;;;;;;;6.45;3.03;;;23.50;62.70;;;;;;5053905;28;20067;-76
2022/06/14 09:36:38;;;;;;;6.43;2.92;;;23.50;61.80;;;;;;5072701;28;20032;-76
2022/06/14 09:39:07;;;;;;;6.85;2.38;;;23.60;61.10;;;;;;5073571;28;20031;-76
2022/06/14 09:41:58;;;;;;;6.20;2.53;;;23.60;60.50;;;;;;5071673;28;20035;-76
2022/06/14 09:45:01;;;;;;;5.65;2.70;;;23.70;60.00;;;;;;5071854;28;20039;-76
2022/06/14 09:47:50;;;;;;;7.65;2.85;;;23.80;58.80;;;;;;5071163;28;20025;-77
2022/06/14 09:50:25;;;;;;;7.47;2.33;;;23.70;58.90;;;;;;5071568;28;20028;-76
2022/06/14 09:52:53;;;;;;;6.28;2.50;;;23.50;58.80;;;;;;5071436;28;20119;-77
2022/06/14 09:55:43;;;;;;;5.25;2.40;;;23.40;58.70;;;;;;5071193;28;20074;-78
2022/06/14 09:58:12;;;;;;;9.20;2.75;;;23.30;58.50;;;;;;5071742;28;20025;-77
2022/06/14 10:00:56;;;;;;;5.90;2.35;;;23.20;58.70;;;;;;5070997;28;20695;-77
2022/06/14 10:03:40;;;;;;;4.97;2.67;;;23.10;58.50;;;;;;5071710;28;20023;-77
2022/06/14 10:06:29;;;;;;;6.63;2.60;;;23.10;57.70;;;;;;5040545;28;20048;-77
2022/06/14 10:09:06;;;;;;;4.25;2.33;;;22.90;57.30;;;;;;5070429;28;20024;-77
2022/06/14 10:12:11;;;;;;;7.45;2.63;;;22.80;57.30;;;;;;5052855;28;20488;-78
2022/06/14 10:15:14;;;;;;;4.57;2.80;;;22.70;57.50;;;;;;5067325;28;20473;-78
2022/06/14 10:18:02;;;;;;;4.80;2.38;;;22.60;57.70;;;;;;5071119;28;20021;-78
2022/06/14 10:20:58;;;;;;;6.47;2.58;;;22.40;57.70;;;;;;5041847;28;20024;-78
2022/06/14 10:23:56;;;;;;;7.13;2.63;;;22.40;58.10;;;;;;5071306;28;20601;-78
2022/06/14 10:29:51;;;;;;;6.60;2.65;;;22.40;58.50;;;;;;5070500;28;20418;-78
2022/06/14 10:32:42;;;;;;;3.33;2.30;;;22.60;58.40;;;;;;5060102;28;20086;-77
2022/06/14 10:35:39;;;;;;;5.00;2.60;;;22.60;57.30;;;;;;5070458;28;20038;-77
2022/06/14 10:38:23;;;;;;;;;;;22.70;57.40;;;;;;5072126;28;20029;-78
2022/06/14 10:41:26;;;;;;;3.85;2.75;;;22.70;57.20;;;;;;5079258;28;19987;-77
2022/06/14 10:44:15;;;;;;;4.32;2.65;;;22.60;57.30;;;;;;5081851;28;20055;-78
2022/06/14 10:46:48;;;;;;;5.65;3.40;;;22.50;57.60;;;;;;5078060;28;20020;-78
2022/06/14 10:49:26;;;;;;;5.45;2.92;;;22.40;57.50;;;;;;5079403;28;20372;-78
2022/06/14 10:52:02;;;;;;;6.45;2.80;;;22.40;57.80;;;;;;5073821;28;20024;-79
2022/06/14 10:54:54;;;;;;;7.57;3.10;;;22.40;58.10;;;;;;5064757;28;20037;-74
2022/06/14 10:57:37;;;;;;;5.75;3.30;;;22.60;57.80;;;;;;5065573;28;20242;-76
2022/06/14 11:00:22;;;;;;;8.07;3.30;;;22.70;57.80;;;;;;5070462;28;20020;-79
2022/06/14 11:03:20;;;;;;;7.78;3.40;;;22.90;57.50;;;;;;5061215;28;20488;-79
2022/06/14 11:06:19;;;;;;;6.65;3.22;;;23.10;57.10;;;;;;5044311;28;20041;-78
2022/06/14 11:09:02;;;;;;;8.43;3.78;;;23.40;56.90;;;;;;5061563;28;20029;-78
2022/06/14 11:11:48;;;;;;;7.05;3.55;;;23.70;55.60;;;;;;5056135;28;20041;-78
2022/06/14 11:14:33;;;;;;;5.85;3.08;;;23.80;54.20;;;;;;5074381;28;20590;-76
2022/06/14 11:17:22;;;;;;;6.93;2.85;;;24.00;53.60;;;;;;5054497;28;20032;-77
2022/06/14 11:20:05;;;;;;;5.65;3.08;;;24.20;53.60;;;;;;5070440;28;20082;-77
2022/06/14 11:22:47;;;;;;;8.20;3.28;;;24.50;53.80;;;;;;5063696;28;20045;-76
2022/06/14 11:25:13;;;;;;;4.93;2.65;;;24.90;53.60;;;;;;5064396;28;20021;-76
2022/06/14 11:28:11;;;;;;;5.55;2.83;;;25.10;52.60;;;;;;5048758;28;20066;-75
2022/06/14 11:30:46;;;;;;;6.97;3.03;;;25.40;51.20;;;;;;5013633;28;20045;-75
2022/06/14 11:33:19;;;;;;;;;;;25.60;50.90;;;;;;5016488;28;20049;-76
2022/06/14 11:36:09;;;;;;;8.32;3.13;;;25.60;50.30;;;;;;5017814;28;19917;-75
2022/06/14 11:38:55;;;;;;;7.30;2.75;;;25.60;50.50;;;;;;5018377;28;20072;-76
2022/06/14 11:41:24;;;;;;;5.93;2.70;;;25.60;50.70;;;;;;5010254;28;20043;-76
2022/06/14 11:44:08;;;;;;;5.80;2.35;;;25.80;51.10;;;;;;5016888;28;20637;-76
2022/06/14 11:47:03;;;;;;;5.80;2.67;;;25.70;51.50;;;;;;5001356;28;20153;-76
2022/06/14 11:49:52;;;;;;;4.72;2.60;;;25.70;51.40;;;;;;5018206;28;20022;-76
2022/06/14 11:52:42;;;;;;;4.80;2.40;;;25.50;52.40;;;;;;5018384;28;20049;-76
2022/06/14 11:55:44;;;;;;;7.80;2.78;;;25.30;52.40;;;;;;5017499;28;20041;-77
2022/06/14 11:58:21;;;;;;;6.28;2.80;;;25.00;52.10;;;;;;5017225;28;20037;-76
2022/06/14 12:00:55;;;;;;;8.05;3.00;;;24.50;52.80;;;;;;5018843;28;20049;-76
2022/06/14 12:03:46;;;;;;;6.40;2.93;;;24.30;53.60;;;;;;5018665;28;20410;-76
2022/06/14 12:06:20;;;;;;;5.47;2.85;;;24.10;53.70;;;;;;5045829;28;20479;-77
2022/06/14 12:09:00;;;;;;;6.10;3.03;;;23.80;53.80;;;;;;5075527;28;20028;-78
2022/06/14 12:11:54;;;;;;;7.03;2.80;;;23.70;54.00;;;;;;5073303;28;20069;-78
2022/06/14 12:14:25;;;;;;;7.25;3.08;;;23.60;54.50;;;;;;5079213;28;20037;-77
2022/06/14 12:17:28;;;;;;;7.95;3.67;;;23.70;54.50;;;;;;5075267;28;20054;-77
2022/06/14 12:20:10;;;;;;;7.93;2.85;;;23.80;53.70;;;;;;5068579;28;20032;-76
2022/06/14 12:23:07;;;;;;;5.53;2.80;;;23.90;54.80;;;;;;5053706;28;20045;-76
2022/06/14 12:29:05;;;;;;;7.32;2.50;;;24.30;53.80;;;;;;5070723;28;20040;-77
2022/06/14 12:31:43;;;;;;;7.93;3.08;;;24.60;53.60;;;;;;5055500;28;20037;-77
2022/06/14 12:34:40;;;;;;;9.25;3.53;;;24.70;53.10;;;;;;5067998;28;20381;-76
2022/06/14 12:37:40;;;;;;;5.88;3.50;;;24.80;53.00;;;;;;5058253;28;20024;-76
2022/06/14 12:40:30;;;;;;;5.45;3.03;;;24.90;52.40;;;;;;5078505;28;20024;-76
2022/06/14 12:43:32;;;;;;;7.53;3.10;;;24.80;52.50;;;;;;5080113;28;20067;-77
2022/06/14 12:46:13;;;;;;;7.03;3.35;;;24.70;52.20;;;;;;5076381;28;20040;-78
2022/06/14 12:48:55;;;;;;;6.55;3.30;;;24.60;52.50;;;;;;5066014;28;20029;-77
2022/06/14 12:51:26;;;;;;;10.55;3.20;;;24.60;52.60;;;;;;5074174;28;20016;-77
2022/06/14 12:54:00;;;;;;;7.03;3.40;;;24.60;52.50;;;;;;5073332;28;20040;-77
2022/06/14 12:56:33;;;;;;;10.10;3.93;;;24.60;52.60;;;;;;5071975;28;20047;-77
2022/06/14 12:59:15;;;;;;;8.50;3.00;;;24.50;51.90;;;;;;5072486;28;20032;-77
2022/06/14 13:01:59;;;;;;;8.45;3.47;;;24.50;52.20;;;;;;5079298;28;20020;-78
2022/06/14 13:04:33;;;;;;;5.55;3.13;;;24.40;52.20;;;;;;5074815;28;20012;-77
2022/06/14 13:07:19;;;;;;;7.30;4.10;;;24.50;52.30;;;;;;5070398;28;20051;-77
2022/06/14 13:10:07;;;;;;;9.38;3.58;;;24.50;51.90;;;;;;5071331;28;20539;-78
2022/06/14 13:13:29;;;;;;;6.65;3.38;;;24.60;51.90;;;;;;5076269;28;20048;-77
2022/06/14 13:16:12;;;;;;;6.80;2.97;;;24.80;52.10;;;;;;4974452;28;20167;-77
2022/06/14 13:18:47;;;;;;;8.73;3.38;;;24.90;52.10;;;;;;4980590;28;20035;-77
2022/06/14 13:21:31;;;;;;;8.55;4.20;;;25.10;51.90;;;;;;4973907;28;20054;-74
2022/06/14 13:24:29;;;;;;;7.07;4.05;;;25.20;51.70;;;;;;4978953;28;20038;-78
2022/06/14 13:27:10;;;;;;;7.00;3.22;;;25.50;50.60;;;;;;4956266;28;20055;-76
2022/06/14 13:29:47;;;;;;;6.25;3.47;;;25.60;50.50;;;;;;4970608;28;20030;-76
2022/06/14 13:32:44;;;;;;;7.40;3.60;;;25.90;50.60;;;;;;4981705;28;20031;-76
2022/06/14 13:35:45;;;;;;;6.82;3.30;;;26.10;50.40;;;;;;4974436;28;20045;-76
2022/06/14 13:38:10;;;;;;;8.45;3.40;;;26.30;49.70;;;;;;4937251;29;20476;-77
2022/06/14 13:40:54;;;;;;;7.20;3.80;;;26.50;49.60;;;;;;4934683;29;20035;-77
2022/06/14 13:43:41;;;;;;;6.57;2.90;;;26.60;48.70;;;;;;4938350;29;20031;-77
2022/06/14 13:46:18;;;;;;;4.95;3.05;;;26.70;48.70;;;;;;4952863;28;20094;-77
2022/06/14 13:49:15;;;;;;;8.27;3.30;;;26.80;48.40;;;;;;4986520;28;20138;-77
2022/06/14 13:51:48;;;;;;;6.60;3.47;;;26.90;48.10;;;;;;4981421;28;20026;-76
2022/06/14 13:54:41;;;;;;;7.72;3.47;;;26.90;47.70;;;;;;4991632;28;20073;-77
2022/06/14 13:57:28;;;;;;;7.15;3.35;;;27.00;47.30;;;;;;4989477;28;20029;-77
2022/06/14 14:00:00;;;;;;;6.00;3.55;;;27.10;47.20;;;;;;4991749;28;20038;-77
2022/06/14 14:02:47;;;;;;;7.40;3.50;;;27.10;46.90;;;;;;4978526;28;20063;-77
2022/06/14 14:05:41;;;;;;;5.85;3.63;;;27.20;46.50;;;;;;4990314;28;20042;-76
2022/06/14 14:08:28;;;;;;;5.15;3.45;;;27.30;46.70;;;;;;4982076;28;20034;-77